Time;durP1;ratioP1;P1;durP2;ratioP2;P2;SDS_P1;SDS_P2;PMS_P1;PMS_P2;Temp;Humidity;BMP_temperature;BMP_pressure;BME280_temperature;BME280_humidity;BME280_pressure;Samples;Min_cycle;Max_cycle;Signal;HPM_P1;HPM_P2
2022/12/26 00:02:53;;;;;;;0.50;0.50;;;;;;;8.96;100.00;100956.09;10422566;28;20083;-67
2022/12/26 00:07:54;;;;;;;0.70;0.70;;;;;;;8.96;100.00;100966.91;10420606;28;20119;-66
2022/12/26 00:12:54;;;;;;;1.45;1.40;;;;;;;8.95;100.00;100969.78;10421049;28;20037;-67
2022/12/26 00:17:55;;;;;;;0.93;0.93;;;;;;;8.90;100.00;100962.22;10420893;28;20120;-66
2022/12/26 00:22:55;;;;;;;0.60;0.60;;;;;;;8.91;100.00;100977.44;10420673;28;20374;-67
2022/12/26 00:27:55;;;;;;;1.98;1.88;;;;;;;8.88;100.00;100977.81;10420375;28;20041;-66
2022/12/26 00:32:56;;;;;;;9.55;3.55;;;;;;;8.84;100.00;100988.13;10421445;28;20036;-66
2022/12/26 00:37:56;;;;;;;0.65;0.65;;;;;;;8.83;100.00;100977.50;10418892;28;20044;-66
2022/12/26 00:42:56;;;;;;;1.05;1.05;;;;;;;8.84;100.00;100976.50;10421032;28;20034;-66
2022/12/26 00:47:57;;;;;;;4.85;1.80;;;;;;;8.82;100.00;100975.84;10420256;28;20034;-66
2022/12/26 00:52:57;;;;;;;0.38;0.38;;;;;;;8.82;100.00;100967.72;10420495;28;20406;-67
2022/12/26 00:57:58;;;;;;;0.70;0.70;;;;;;;8.72;100.00;100956.38;10419911;28;20029;-66
2022/12/26 01:02:58;;;;;;;1.88;1.77;;;;;;;8.75;100.00;100964.09;10420065;28;20118;-66
2022/12/26 01:07:58;;;;;;;1.92;1.83;;;;;;;8.77;100.00;100959.34;10419560;28;20049;-66
2022/12/26 01:12:59;;;;;;;0.60;0.60;;;;;;;8.77;100.00;100954.78;10435357;28;20155;-66
2022/12/26 01:17:59;;;;;;;2.88;1.42;;;;;;;8.79;100.00;100949.19;10419185;28;20037;-66
2022/12/26 01:23:00;;;;;;;0.40;0.40;;;;;;;8.76;100.00;100950.41;10418891;28;20453;-66
2022/12/26 01:28:00;;;;;;;0.40;0.40;;;;;;;8.74;100.00;100955.16;10418701;28;20045;-67
2022/12/26 01:33:00;;;;;;;0.50;0.50;;;;;;;8.68;100.00;100955.91;10400874;28;20432;-66
2022/12/26 01:38:01;;;;;;;0.45;0.45;;;;;;;8.69;100.00;100968.38;10417853;28;20057;-66
2022/12/26 01:43:01;;;;;;;4.95;2.20;;;;;;;8.72;100.00;100973.41;10432931;28;20041;-66
2022/12/26 01:48:14;;;;;;;0.85;0.85;;;;;;;8.79;100.00;100981.59;10416597;28;20037;-67
2022/12/26 01:53:18;;;;;;;0.60;0.60;;;;;;;8.80;100.00;100967.91;10416803;28;20090;-66
2022/12/26 01:58:22;;;;;;;0.40;0.40;;;;;;;8.73;100.00;100958.03;10432622;28;20099;-66
2022/12/26 02:08:41;;;;;;;1.35;1.25;;;;;;;8.78;100.00;100963.72;10415572;28;20490;-67
2022/12/26 02:13:42;;;;;;;1.23;1.00;;;;;;;8.80;100.00;100965.19;10417453;28;20068;-66
2022/12/26 02:18:42;;;;;;;0.50;0.50;;;;;;;8.90;100.00;100962.22;10415536;28;20037;-67
2022/12/26 02:23:51;;;;;;;0.82;0.82;;;;;;;8.93;100.00;100967.25;10416583;28;20037;-66
2022/12/26 02:29:10;;;;;;;3.47;2.72;;;;;;;8.93;100.00;100942.97;10415817;28;20032;-67
2022/12/26 02:34:22;;;;;;;0.30;0.30;;;;;;;8.77;100.00;100943.13;10416759;28;20037;-67
2022/12/26 02:39:31;;;;;;;0.52;0.52;;;;;;;8.57;100.00;100959.88;10415542;28;20476;-67
2022/12/26 03:17:19;;;;;;;0.77;0.77;;;;;;;8.08;100.00;100979.13;10428291;28;20030;-66
2022/12/26 03:22:31;;;;;;;0.40;0.40;;;;;;;8.13;100.00;100965.91;10414149;28;20057;-67
2022/12/26 03:27:32;;;;;;;0.55;0.55;;;;;;;8.07;100.00;100945.09;10415742;28;20485;-66
2022/12/26 03:32:41;;;;;;;0.55;0.55;;;;;;;7.88;100.00;100943.72;10415031;28;20132;-67
2022/12/26 03:37:48;;;;;;;1.88;1.67;;;;;;;7.84;100.00;100945.06;10413777;28;20033;-67
2022/12/26 04:53:36;;;;;;;0.40;0.40;;;;;;;7.67;100.00;100938.09;10420030;28;20057;-66
2022/12/26 04:58:36;;;;;;;0.60;0.60;;;;;;;7.72;100.00;100938.38;10418692;28;20041;-67
2022/12/26 05:14:14;;;;;;;0.70;0.70;;;;;;;7.93;100.00;100926.97;10419430;28;20424;-67
2022/12/26 05:29:55;;;;;;;0.50;0.50;;;;;;;8.04;100.00;100923.88;10431775;28;20116;-66
2022/12/26 05:34:55;;;;;;;0.40;0.40;;;;;;;7.86;100.00;100934.94;10419119;28;20037;-66
2022/12/26 05:39:56;;;;;;;0.40;0.40;;;;;;;7.81;100.00;100926.53;10417790;28;20393;-67
2022/12/26 05:44:56;;;;;;;0.35;0.35;;;;;;;7.81;100.00;100936.50;10418703;28;20112;-66
2022/12/26 05:49:57;;;;;;;0.40;0.40;;;;;;;7.79;100.00;100949.34;10418064;28;20474;-67
2022/12/26 05:54:57;;;;;;;0.30;0.30;;;;;;;7.82;100.00;100943.59;10418415;28;20061;-67
2022/12/26 05:59:57;;;;;;;0.30;0.30;;;;;;;7.87;100.00;100944.72;10416920;28;20045;-67
2022/12/26 06:04:58;;;;;;;0.40;0.40;;;;;;;7.84;100.00;100952.31;10417353;28;20072;-67
2022/12/26 06:09:58;;;;;;;0.68;0.68;;;;;;;7.92;100.00;100945.03;10416559;28;20045;-67
2022/12/26 06:14:58;;;;;;;5.90;5.40;;;;;;;7.92;100.00;100952.28;10417039;28;20492;-67
2022/12/26 06:19:59;;;;;;;6.15;4.57;;;;;;;8.01;100.00;100961.13;10417944;28;20115;-67
2022/12/26 06:24:59;;;;;;;6.65;4.93;;;;;;;8.09;100.00;100955.69;10416004;28;20164;-67
2022/12/26 06:30:00;;;;;;;6.75;4.70;;;;;;;8.16;100.00;100957.47;10416479;28;20519;-67
2022/12/26 06:35:00;;;;;;;9.13;4.90;;;;;;;8.15;100.00;100938.78;10414759;28;20044;-67
2022/12/26 06:40:00;;;;;;;5.40;4.93;;;;;;;8.23;100.00;100951.34;10416746;28;20087;-66
2022/12/26 06:45:01;;;;;;;4.80;4.35;;;;;;;8.29;100.00;100950.63;10416708;28;20079;-67
2022/12/26 06:50:01;;;;;;;6.13;4.53;;;;;;;8.17;100.00;100955.63;10431374;28;20029;-66
2022/12/26 06:55:02;;;;;;;10.43;4.30;;;;;;;8.26;100.00;100953.69;10416244;28;20061;-68
2022/12/26 07:00:02;;;;;;;7.95;5.30;;;;;;;8.27;100.00;100950.81;10415653;28;20057;-67
2022/12/26 07:05:03;;;;;;;8.45;5.05;;;;;;;8.19;100.00;100952.75;10415528;28;20116;-67
2022/12/26 07:10:04;;;;;;;3.75;3.25;;;;;;;8.17;100.00;100934.06;10415449;28;20097;-67
2022/12/26 07:15:08;;;;;;;8.27;3.78;;;;;;;8.21;100.00;100950.72;10415553;28;20033;-67
2022/12/26 07:20:09;;;;;;;19.77;5.30;;;;;;;8.28;100.00;100957.91;10416988;28;20038;-67
2022/12/26 07:25:10;;;;;;;10.63;4.65;;;;;;;8.36;100.00;100967.81;10414969;28;20473;-67
2022/12/26 07:30:10;;;;;;;4.28;3.97;;;;;;;8.36;100.00;100970.50;10415132;28;20037;-68
2022/12/26 07:35:11;;;;;;;4.80;3.65;;;;;;;8.36;100.00;100957.84;10414877;28;20034;-67
2022/12/26 07:40:11;;;;;;;6.03;4.15;;;;;;;8.41;100.00;100976.19;10431418;28;20034;-67
2022/12/26 07:45:12;;;;;;;2.30;2.13;;;;;;;8.39;100.00;100975.53;10429580;28;20496;-66
2022/12/26 07:50:12;;;;;;;9.38;3.17;;;;;;;8.43;100.00;100976.88;10422797;28;20040;-67
2022/12/26 07:55:12;;;;;;;9.32;4.57;;;;;;;8.47;100.00;100998.94;10422550;28;20053;-66
2022/12/26 08:00:13;;;;;;;4.07;3.65;;;;;;;8.49;100.00;101005.00;10422184;28;20124;-66
2022/12/26 08:05:14;;;;;;;0.50;0.50;;;;;;;8.53;100.00;101036.84;10421971;28;20592;-68
2022/12/26 08:10:15;;;;;;;0.43;0.43;;;;;;;8.48;100.00;101051.88;10437134;28;20029;-67
2022/12/26 08:15:16;;;;;;;0.40;0.40;;;;;;;8.35;100.00;101044.34;10421685;28;20041;-69
2022/12/26 08:20:16;;;;;;;0.32;0.32;;;;;;;8.22;100.00;101069.22;10420300;28;20461;-68
2022/12/26 08:25:17;;;;;;;0.30;0.30;;;;;;;8.14;100.00;101071.97;10436186;28;20033;-68
2022/12/26 08:30:17;;;;;;;0.47;0.47;;;;;;;8.05;100.00;101089.22;10422807;28;20423;-67
2022/12/26 08:35:18;;;;;;;0.40;0.40;;;;;;;8.00;100.00;101094.28;10420543;28;20397;-67
2022/12/26 08:40:18;;;;;;;0.35;0.35;;;;;;;7.99;100.00;101095.31;10421067;28;20144;-68
2022/12/26 08:45:19;;;;;;;0.32;0.32;;;;;;;8.03;100.00;101119.06;10435899;28;20030;-67
2022/12/26 08:50:19;;;;;;;0.73;0.73;;;;;;;8.06;100.00;101136.75;10418881;28;20508;-67
2022/12/26 08:55:19;;;;;;;0.50;0.50;;;;;;;8.08;100.00;101170.63;10420741;28;20065;-67
2022/12/26 09:00:22;;;;;;;0.30;0.30;;;;;;;8.03;100.00;101194.56;10419021;28;20091;-67
2022/12/26 09:05:23;;;;;;;0.40;0.40;;;;;;;7.72;100.00;101210.66;10419777;28;20104;-66
2022/12/26 09:10:23;;;;;;;4.05;3.80;;;;;;;7.48;100.00;101224.19;10419050;28;20393;-67
2022/12/26 09:15:23;;;;;;;0.40;0.40;;;;;;;7.37;100.00;101239.69;10419873;28;20040;-68
2022/12/26 09:20:24;;;;;;;3.17;0.70;;;;;;;7.26;100.00;101258.00;10420215;28;20037;-68
2022/12/26 09:25:24;;;;;;;0.50;0.50;;;;;;;7.18;100.00;101283.09;10417593;28;20354;-68
2022/12/26 09:30:25;;;;;;;1.05;1.05;;;;;;;7.08;100.00;101288.59;10417623;28;20128;-67
2022/12/26 09:35:25;;;;;;;0.40;0.40;;;;;;;6.98;100.00;101296.00;10419118;28;20037;-67
2022/12/26 09:40:27;;;;;;;0.30;0.30;;;;;;;6.87;100.00;101312.47;10420259;28;20052;-66
2022/12/26 09:45:48;;;;;;;5.32;3.60;;;;;;;6.82;100.00;101325.56;10401037;28;20029;-66
2022/12/26 09:50:49;;;;;;;0.40;0.40;;;;;;;6.94;100.00;101338.56;10419743;28;20045;-65
2022/12/26 09:55:55;;;;;;;1.92;1.33;;;;;;;6.96;100.00;101338.41;10436709;28;20053;-66
2022/12/26 10:00:57;;;;;;;0.43;0.43;;;;;;;7.04;100.00;101337.59;10422146;28;20109;-67
2022/12/26 10:06:23;;;;;;;0.40;0.40;;;;;;;6.92;100.00;101353.19;10438986;28;20025;-67
2022/12/26 10:11:45;;;;;;;1.05;1.05;;;;;;;6.92;100.00;101363.94;10431969;28;20461;-67
2022/12/26 10:17:03;;;;;;;0.40;0.40;;;;;;;7.02;100.00;101377.28;10418234;28;20048;-68
2022/12/26 10:22:31;;;;;;;0.40;0.40;;;;;;;7.52;100.00;101363.78;10429992;28;20025;-65
2022/12/26 10:27:35;;;;;;;0.40;0.40;;;;;;;7.52;100.00;101379.94;10417707;28;20033;-66
2022/12/26 10:32:40;;;;;;;0.40;0.40;;;;;;;7.28;100.00;101401.47;10416802;28;20086;-66
2022/12/26 10:37:40;;;;;;;1.27;1.27;;;;;;;7.25;100.00;101397.25;10422647;28;20048;-65
2022/12/26 10:42:43;;;;;;;0.50;0.50;;;;;;;7.35;100.00;101408.72;10426009;28;20033;-66
2022/12/26 10:47:44;;;;;;;0.40;0.40;;;;;;;7.57;100.00;101418.03;10417027;28;20030;-66
2022/12/26 10:52:45;;;;;;;3.33;2.75;;;;;;;7.99;100.00;101406.28;10413718;28;20088;-69
2022/12/26 10:57:47;;;;;;;0.40;0.40;;;;;;;8.03;100.00;101423.81;10417355;28;20100;-66
2022/12/26 11:03:13;;;;;;;0.70;0.70;;;;;;;8.18;100.00;101425.84;10414202;28;20029;-69
2022/12/26 11:08:25;;;;;;;0.47;0.47;;;;;;;7.99;100.00;101430.56;10430655;28;20103;-66
2022/12/26 11:13:26;;;;;;;0.43;0.43;;;;;;;7.93;100.00;101442.84;10430999;28;20106;-67
2022/12/26 11:18:48;;;;;;;11.88;2.92;;;;;;;8.00;100.00;101451.13;10415226;28;20168;-66
2022/12/26 11:23:51;;;;;;;2.60;1.98;;;;;;;7.61;100.00;101459.81;10422379;28;20536;-67
2022/12/26 11:29:16;;;;;;;2.45;2.25;;;;;;;7.22;100.00;101475.69;10422560;28;20040;-67
2022/12/26 11:34:19;;;;;;;6.53;1.60;;;;;;;6.82;100.00;101490.59;10422372;28;20144;-67
2022/12/26 11:39:23;;;;;;;3.45;1.63;;;;;;;6.78;100.00;101491.09;10438041;28;20026;-67
2022/12/26 11:44:29;;;;;;;6.38;2.33;;;;;;;6.71;100.00;101488.19;10437920;28;20036;-67
2022/12/26 11:49:50;;;;;;;7.20;2.05;;;;;;;6.74;100.00;101493.25;10437664;28;20026;-66
2022/12/26 11:54:50;;;;;;;7.22;1.80;;;;;;;6.89;100.00;101498.88;10422486;28;20418;-66
2022/12/26 11:59:51;;;;;;;4.57;1.38;;;;;;;6.96;100.00;101506.19;10420150;28;20054;-67
2022/12/26 12:04:54;;;;;;;2.85;1.75;;;;;;;6.81;100.00;101506.94;10421623;28;20028;-68
2022/12/26 12:10:10;;;;;;;5.93;1.33;;;;;;;6.80;100.00;101500.69;10421766;28;20037;-68
2022/12/26 12:15:23;;;;;;;7.35;2.67;;;;;;;7.03;100.00;101510.94;10422690;28;20083;-68
2022/12/26 12:20:31;;;;;;;1.17;1.17;;;;;;;7.07;100.00;101523.06;10436184;28;20031;-67
2022/12/26 12:25:31;;;;;;;8.48;2.08;;;;;;;8.02;100.00;101527.34;10438781;28;20038;-67
2022/12/26 12:30:48;;;;;;;4.57;3.08;;;;;;;7.88;100.00;101528.81;10421580;28;20056;-70
2022/12/26 12:36:08;;;;;;;3.60;2.45;;;;;;;7.43;100.00;101539.91;10421096;28;20269;-69
2022/12/26 12:41:26;;;;;;;8.20;2.30;;;;;;;7.03;100.00;101537.88;10421280;28;20042;-67
2022/12/26 12:46:50;;;;;;;4.85;2.00;;;;;;;7.61;100.00;101543.38;10420998;28;20025;-67
2022/12/26 12:52:16;;;;;;;4.60;1.73;;;;;;;7.75;100.00;101539.19;10419721;28;20112;-68
2022/12/26 12:57:35;;;;;;;8.77;2.22;;;;;;;7.86;100.00;101538.91;10436326;28;20038;-68
2022/12/26 13:02:55;;;;;;;7.97;3.03;;;;;;;7.86;100.00;101549.72;10419747;28;20098;-67
2022/12/26 13:08:28;;;;;;;2.40;1.67;;;;;;;7.60;100.00;101562.41;10433373;28;20075;-68
2022/12/26 13:13:37;;;;;;;2.67;2.38;;;;;;;7.49;100.00;101579.69;10418273;28;20373;-68
2022/12/26 13:18:39;;;;;;;5.95;2.42;;;;;;;7.35;100.00;101577.63;10418521;28;20033;-68
2022/12/26 13:29:30;;;;;;;2.45;1.70;;;;;;;6.92;100.00;101574.81;10417957;28;20453;-67
2022/12/26 13:34:31;;;;;;;3.78;1.98;;;;;;;6.86;100.00;101585.34;10418454;28;20069;-68
2022/12/26 13:39:33;;;;;;;10.05;1.58;;;;;;;7.03;100.00;101580.94;10433510;28;20037;-68
2022/12/26 13:44:33;;;;;;;3.45;2.10;;;;;;;7.15;100.00;101598.53;10415350;28;20033;-75
2022/12/26 13:49:38;;;;;;;6.18;1.70;;;;;;;7.31;100.00;101609.44;10432789;28;20053;-67
2022/12/26 13:54:51;;;;;;;12.98;2.70;;;;;;;7.55;100.00;101606.00;10415944;28;20049;-68
2022/12/26 14:00:06;;;;;;;6.72;1.80;;;;;;;7.46;100.00;101615.91;10417948;28;20335;-68
2022/12/26 14:06:00;;;;;;;3.17;2.88;;;;;;;7.23;100.00;101602.13;10432070;28;20135;-68
2022/12/26 14:11:57;;;;;;;2.83;1.58;;;;;;;7.08;100.00;101619.84;10491222;28;20352;-66
2022/12/26 14:17:37;;;;;;;8.00;2.28;;;;;;;7.26;100.00;101624.38;10477067;28;20028;-66
2022/12/26 14:23:10;;;;;;;10.85;2.92;;;;;;;7.20;100.00;101639.31;10490631;28;20465;-66
2022/12/26 14:28:54;;;;;;;11.32;1.95;;;;;;;7.02;100.00;101651.94;10488491;28;20037;-67
2022/12/26 14:34:28;;;;;;;12.43;3.50;;;;;;;6.91;100.00;101659.28;10491607;28;20086;-66
2022/12/26 14:39:37;;;;;;;6.97;2.72;;;;;;;6.75;100.00;101653.75;10490747;28;20500;-66
2022/12/26 14:44:37;;;;;;;4.78;2.90;;;;;;;6.62;100.00;101655.97;10489474;28;20037;-69
2022/12/26 14:49:39;;;;;;;4.28;2.28;;;;;;;6.46;100.00;101664.72;10492454;28;20029;-68
2022/12/26 14:54:45;;;;;;;13.95;2.38;;;;;;;6.37;100.00;101666.47;10490884;28;20475;-67
2022/12/26 15:00:13;;;;;;;12.30;3.35;;;;;;;6.33;100.00;101672.31;10488595;28;20044;-67
2022/12/26 15:05:21;;;;;;;6.57;2.75;;;;;;;6.18;100.00;101678.19;10359524;28;20107;-67
2022/12/26 15:10:32;;;;;;;7.68;1.83;;;;;;;5.98;100.00;101681.97;10403049;28;20073;-66
2022/12/26 15:16:02;;;;;;;15.65;3.15;;;;;;;5.82;100.00;101688.78;10404862;28;20038;-66
2022/12/26 15:21:21;;;;;;;4.05;2.33;;;;;;;5.66;100.00;101683.19;10362977;28;20074;-67
2022/12/26 15:26:39;;;;;;;10.27;3.92;;;;;;;5.54;100.00;101698.63;10338266;28;20022;-67
2022/12/26 15:32:02;;;;;;;10.20;2.63;;;;;;;5.45;100.00;101695.97;10339017;28;20037;-66
2022/12/26 15:37:31;;;;;;;13.50;2.67;;;;;;;5.38;100.00;101705.59;10377466;28;20026;-66
2022/12/26 15:43:08;;;;;;;12.23;3.38;;;;;;;5.23;100.00;101703.38;10378905;28;20030;-66
2022/12/26 15:48:21;;;;;;;;;;;;;;;5.11;100.00;101716.09;10394411;28;20036;-67
2022/12/26 15:53:42;;;;;;;11.18;4.30;;;;;;;5.09;100.00;101723.44;10291955;28;19940;-67
2022/12/26 15:59:10;;;;;;;15.65;4.45;;;;;;;4.99;100.00;101722.59;10376326;28;20038;-68
2022/12/26 16:04:19;;;;;;;3.85;3.20;;;;;;;4.92;100.00;101720.63;10377293;28;20034;-68
2022/12/26 16:09:45;;;;;;;10.27;4.53;;;;;;;4.81;100.00;101735.84;10360438;28;20482;-66
2022/12/26 16:14:46;;;;;;;8.73;3.42;;;;;;;4.74;100.00;101740.06;10377650;28;20030;-67
2022/12/26 16:19:48;;;;;;;11.32;3.45;;;;;;;4.68;100.00;101745.16;10377247;28;20037;-67
2022/12/26 16:24:52;;;;;;;4.55;3.08;;;;;;;4.57;100.00;101748.81;10376269;28;20049;-67
2022/12/26 16:29:59;;;;;;;10.40;3.53;;;;;;;4.55;100.00;101756.13;10376430;28;20030;-67
2022/12/26 16:35:00;;;;;;;9.38;3.70;;;;;;;4.52;100.00;101751.88;10375858;28;20034;-67
2022/12/26 16:40:22;;;;;;;10.93;3.50;;;;;;;4.54;100.00;101743.72;10375619;28;20026;-69
2022/12/26 16:45:22;;;;;;;14.80;4.03;;;;;;;4.61;100.00;101739.50;10376931;28;20470;-67
2022/12/26 16:50:25;;;;;;;11.50;4.57;;;;;;;4.93;100.00;101744.63;10342983;28;20037;-68
2022/12/26 16:55:35;;;;;;;9.57;4.05;;;;;;;5.24;100.00;101737.28;10375772;28;20034;-68
2022/12/26 17:00:36;;;;;;;4.20;3.33;;;;;;;5.44;100.00;101748.00;10375964;28;20535;-67
2022/12/26 17:05:36;;;;;;;15.52;6.45;;;;;;;5.43;100.00;101757.91;10376367;28;20106;-68
2022/12/26 17:10:37;;;;;;;18.98;9.20;;;;;;;5.29;100.00;101775.28;10358302;28;20129;-68
2022/12/26 17:15:54;;;;;;;6.30;3.92;;;;;;;5.05;100.00;101769.50;10376895;28;20046;-69
2022/12/26 17:20:54;;;;;;;;;;;;;;;4.99;100.00;101778.94;10377789;28;20469;-68
2022/12/26 17:26:28;;;;;;;5.43;3.60;;;;;;;4.98;100.00;101776.41;10375901;28;19914;-69
2022/12/26 17:31:37;;;;;;;6.97;2.85;;;;;;;4.96;100.00;101791.81;10377025;28;20029;-69
2022/12/26 17:36:37;;;;;;;16.00;3.45;;;;;;;4.88;100.00;101793.34;10376244;28;20038;-71
2022/12/26 17:41:42;;;;;;;51.90;21.52;;;;;;;4.93;100.00;101811.72;10374959;28;20041;-69
2022/12/26 17:46:43;;;;;;;13.70;6.63;;;;;;;5.10;100.00;101815.56;10375354;28;20037;-67
2022/12/26 17:51:43;;;;;;;25.55;9.77;;;;;;;5.18;100.00;101810.34;10376746;28;20034;-69
2022/12/26 17:56:43;;;;;;;12.63;5.88;;;;;;;5.36;100.00;101814.03;10374054;28;20030;-69
2022/12/26 18:01:44;;;;;;;9.45;4.35;;;;;;;5.49;100.00;101804.84;10374068;28;20038;-70
2022/12/26 18:06:44;;;;;;;10.18;3.08;;;;;;;5.42;100.00;101814.44;10373700;28;20165;-68
2022/12/26 18:11:44;;;;;;;11.57;2.97;;;;;;;5.62;100.00;101810.78;10357119;28;20142;-69
2022/12/26 18:16:45;;;;;;;7.22;1.88;;;;;;;5.78;100.00;101820.94;10357779;28;20137;-68
2022/12/26 18:21:46;;;;;;;32.35;19.00;;;;;;;6.02;100.00;101823.19;10374247;28;20413;-66
2022/12/26 18:26:47;;;;;;;4.70;3.05;;;;;;;6.11;100.00;101827.69;10373269;28;20045;-72
2022/12/26 18:31:47;;;;;;;8.55;2.90;;;;;;;5.96;100.00;101847.94;10373228;28;20120;-67
2022/12/26 18:36:47;;;;;;;23.10;3.22;;;;;;;5.87;100.00;101848.78;10375373;28;20034;-69
2022/12/26 18:41:48;;;;;;;10.57;2.67;;;;;;;5.77;100.00;101846.94;10375822;28;20355;-69
2022/12/26 18:46:50;;;;;;;6.40;2.10;;;;;;;5.81;100.00;101855.59;10374577;28;20232;-68
2022/12/26 18:51:51;;;;;;;12.00;3.42;;;;;;;5.73;100.00;101861.66;10374279;28;20065;-69
2022/12/26 18:56:51;;;;;;;11.10;3.17;;;;;;;5.67;100.00;101882.88;10380915;28;20066;-69
2022/12/26 19:01:51;;;;;;;8.27;3.15;;;;;;;5.74;100.00;101890.25;10382087;28;20386;-68
2022/12/26 19:06:52;;;;;;;10.40;2.47;;;;;;;5.93;100.00;101891.25;10382355;28;20042;-67
2022/12/26 19:11:52;;;;;;;2.05;1.60;;;;;;;5.94;100.00;101893.81;10381131;28;20261;-68
2022/12/26 19:16:53;;;;;;;1.58;1.45;;;;;;;6.08;100.00;101886.28;10381116;28;20037;-68
2022/12/26 19:21:53;;;;;;;4.57;2.10;;;;;;;6.19;100.00;101892.38;10380447;28;20466;-68
2022/12/26 19:26:53;;;;;;;3.70;2.53;;;;;;;6.21;100.00;101898.44;10382482;28;20467;-71
2022/12/26 19:31:55;;;;;;;4.68;2.03;;;;;;;5.93;100.00;101877.81;10381844;28;20130;-68
2022/12/26 19:36:55;;;;;;;2.67;1.73;;;;;;;6.04;100.00;101886.59;10380980;28;20041;-67
2022/12/26 19:41:56;;;;;;;5.32;1.90;;;;;;;6.15;100.00;101895.47;10384295;28;20053;-68
2022/12/26 19:46:56;;;;;;;6.90;2.03;;;;;;;6.25;100.00;101894.47;10381136;28;20036;-69
2022/12/26 19:51:56;;;;;;;10.45;2.78;;;;;;;6.31;100.00;101900.25;10378133;28;20034;-68
2022/12/26 19:56:57;;;;;;;3.50;2.30;;;;;;;6.26;100.00;101903.41;10378804;28;20445;-68
2022/12/26 20:01:57;;;;;;;9.52;3.95;;;;;;;6.39;100.00;101897.72;10378517;28;20034;-69
2022/12/26 20:06:59;;;;;;;5.03;2.40;;;;;;;6.40;100.00;101900.22;10377913;28;20061;-69
2022/12/26 20:12:00;;;;;;;7.65;4.18;;;;;;;6.39;100.00;101906.63;10378677;28;20100;-69
2022/12/26 20:17:01;;;;;;;7.50;2.17;;;;;;;6.35;100.00;101907.03;10378152;28;20034;-68
2022/12/26 20:22:01;;;;;;;11.48;4.03;;;;;;;6.04;100.00;101913.47;10377350;28;20429;-69
2022/12/26 20:27:02;;;;;;;9.18;3.20;;;;;;;5.95;100.00;101919.69;10377456;28;20061;-68
2022/12/26 20:32:02;;;;;;;5.45;3.10;;;;;;;5.91;100.00;101923.63;10375727;28;20481;-67
2022/12/26 20:37:03;;;;;;;16.63;3.35;;;;;;;5.92;100.00;101917.25;10375994;28;20030;-70
2022/12/26 20:42:03;;;;;;;7.85;2.72;;;;;;;5.83;100.00;101915.41;10377056;28;20038;-69
2022/12/26 20:47:04;;;;;;;7.38;2.38;;;;;;;5.73;100.00;101930.69;10375579;28;20083;-69
2022/12/26 20:52:04;;;;;;;7.78;3.30;;;;;;;5.69;100.00;101943.56;10375999;28;20505;-69
2022/12/26 20:57:04;;;;;;;10.57;3.65;;;;;;;5.71;100.00;101955.03;10375365;28;20062;-70
2022/12/26 21:02:05;;;;;;;11.73;3.50;;;;;;;5.71;100.00;101962.22;10375352;28;20375;-68
2022/12/26 21:07:05;;;;;;;7.07;3.25;;;;;;;5.76;100.00;101963.50;10374685;28;20068;-69
2022/12/26 21:12:06;;;;;;;11.23;3.03;;;;;;;5.75;100.00;101972.56;10375328;28;20406;-70
2022/12/26 21:17:06;;;;;;;9.70;3.65;;;;;;;5.81;100.00;101971.19;10374479;28;20103;-68
2022/12/26 21:22:07;;;;;;;11.88;3.60;;;;;;;5.69;100.00;101970.44;10375538;28;20073;-68
2022/12/26 21:27:07;;;;;;;10.48;4.25;;;;;;;5.57;100.00;101993.06;10375372;28;20057;-68
2022/12/26 21:32:07;;;;;;;8.52;3.15;;;;;;;5.54;100.00;101990.63;10374410;28;20049;-68
2022/12/26 21:42:27;;;;;;;10.30;2.92;;;;;;;5.78;100.00;101993.81;10374479;28;20047;-69
2022/12/26 21:47:27;;;;;;;7.63;3.55;;;;;;;5.88;100.00;102001.88;10374477;28;20038;-67
2022/12/26 21:52:27;;;;;;;8.93;2.97;;;;;;;5.86;100.00;102011.91;10373386;28;20045;-69
2022/12/26 21:57:30;;;;;;;4.70;3.30;;;;;;;5.79;100.00;102017.00;10372791;28;20038;-69
2022/12/26 22:07:58;;;;;;;10.75;3.47;;;;;;;5.64;100.00;102023.75;10373380;28;20038;-68
2022/12/26 22:12:59;;;;;;;7.88;2.22;;;;;;;5.58;100.00;102032.34;10373113;28;20053;-69
2022/12/26 22:17:59;;;;;;;12.98;3.03;;;;;;;5.63;100.00;102037.34;10373513;28;20042;-68
2022/12/26 22:23:01;;;;;;;4.55;2.15;;;;;;;5.61;100.00;102040.13;10371935;28;20116;-69
2022/12/26 22:28:01;;;;;;;12.52;2.58;;;;;;;5.51;100.00;102033.91;10372504;28;20108;-69
2022/12/26 22:33:02;;;;;;;5.82;3.17;;;;;;;5.55;100.00;102035.31;10379904;28;20045;-68
2022/12/26 22:38:02;;;;;;;6.28;4.45;;;;;;;5.54;100.00;102047.06;10381858;28;20133;-69
2022/12/26 22:43:02;;;;;;;10.65;3.30;;;;;;;5.51;100.00;102041.97;10381358;28;20089;-68
2022/12/26 22:48:03;;;;;;;7.15;2.85;;;;;;;5.54;100.00;102055.13;10381311;28;20386;-68
2022/12/26 22:53:03;;;;;;;16.55;4.03;;;;;;;5.47;100.00;102049.44;10380385;28;20033;-68
2022/12/26 22:58:04;;;;;;;14.68;3.15;;;;;;;5.50;100.00;102053.69;10382655;28;20489;-69
2022/12/26 23:03:04;;;;;;;2.53;2.35;;;;;;;5.46;100.00;102057.66;10378857;28;20080;-69
2022/12/26 23:08:05;;;;;;;7.13;2.88;;;;;;;5.46;100.00;102055.81;10379665;28;20593;-69
2022/12/26 23:13:08;;;;;;;13.43;4.30;;;;;;;5.45;100.00;102070.22;10380930;28;20109;-68
2022/12/26 23:23:38;;;;;;;13.85;3.40;;;;;;;5.36;100.00;102074.56;10365230;28;20026;-69
2022/12/26 23:33:57;;;;;;;16.15;3.47;;;;;;;5.31;100.00;102078.66;10379086;28;20042;-68
2022/12/26 23:38:57;;;;;;;12.70;3.47;;;;;;;5.29;100.00;102086.81;10377625;28;20452;-68
2022/12/26 23:43:58;;;;;;;5.43;3.03;;;;;;;5.23;100.00;102089.19;10379053;28;20042;-69
2022/12/26 23:48:58;;;;;;;6.07;2.83;;;;;;;5.33;100.00;102092.81;10360051;28;20073;-69
2022/12/26 23:53:58;;;;;;;10.05;4.07;;;;;;;5.46;100.00;102080.00;10377114;28;20482;-69
2022/12/26 23:58:59;;;;;;;14.25;3.25;;;;;;;5.54;100.00;102081.97;10377251;28;20034;-68
